Snow/Ice From: 17-12-2018 09:00 Until: 17:00 warning for: Snow/Ice Level: Yellow info button
suomi:
Liikennesää: Ajokeli muuttuu huonoksi päivällä lumisateen vuoksi.

svenska:
Trafikvädret: Väglaget blir dåligt på dagen p.g.a. snöfall.

english:
Traffic weather warning: Bad road conditions are expected at noon and in the afternoon because of snow. 


Thunder radar more information blitzortung!


Löydät sääaseman tiedot myös:

European Weather Network

Finland Weather Exchange

Weather Underground

AWEKAS



Weather Underground säähistoriasivu

Päivittäin yhteenveto Helmikuu 18, 2017 Yksiköt:  Englantilaiset    Metriset   Molemmat
« Edellinen Päivä
Seuraava Päivä »
Päivittäin Viikoittain Kuukausittain Vuosittain Mukautettu
  Korkea: Matala: Keskiarvo:
Lämpötila: TemperatureC °F -0.5 °F 1.8 °F
Kastepiste: DewpointC °F -2.4 °F -0.4 °F
Kosteus: Humidity % 75 % 84 %
Tuulen nopeus: WindSpeedKMH mph 0.0 mph 3.6 mph
Tuulenpuuska: WindSpeedGustKMH mph - -
Tuuli:- - WSW
Ilmanpaine: PressurehPa in 998.2 in -
Sade: 0.0 in    
Historical Graphs
 
 
Taulukkotiedot Helmikuu 18, 2017
Aika Lämpötila Kastepiste Ilmanpaine Tuuli Tuulen nopeus Tuulenpuuska Kosteus Sademäärä (tunneittain)
TemperatureC °F DewpointC °F PressurehPa in Calm     Humidity % HourlyPrecipMM in
00:00 0.4 °F -2.1 °F 1007.0 in West 4.8 mph 12.9 mph 83 % 0.0 in
00:15 0.4 °F -2.2 °F 1007.0 in West 3.2 mph 11.3 mph 83 % 0.0 in
00:30 0.3 °F -2.2 °F 1007.0 in West 3.2 mph 12.9 mph 83 % 0.0 in
00:45 0.2 °F -2.2 °F 1006.7 in WSW 3.2 mph 12.9 mph 84 % 0.0 in
01:00 0.3 °F -2.1 °F 1006.7 in WSW 4.8 mph 16.1 mph 84 % 0.0 in
01:15 0.2 °F -2.2 °F 1007.0 in WSW 4.8 mph 16.1 mph 84 % 0.0 in
01:30 0.2 °F -2.2 °F 1007.0 in WSW 4.8 mph 17.7 mph 84 % 0.0 in
01:45 -0.1 °F -2.4 °F 1007.0 in SW 3.2 mph 9.7 mph 84 % 0.0 in
02:00 -0.1 °F -2.4 °F 1006.7 in WSW 4.8 mph 17.7 mph 84 % 0.0 in
02:15 -0.2 °F -2.4 °F 1006.7 in WSW 4.8 mph 14.5 mph 85 % 0.0 in
02:45 -0.2 °F -2.4 °F 1006.7 in West 4.8 mph 12.9 mph 85 % 0.0 in
03:00 -0.3 °F -2.2 °F 1006.7 in WSW 4.8 mph 14.5 mph 87 % 0.0 in
03:15 -0.5 °F -2.4 °F 1006.7 in WSW 3.2 mph 11.3 mph 87 % 0.0 in
03:45 -0.4 °F -2.2 °F 1006.3 in WSW 4.8 mph 17.7 mph 88 % 0.0 in
04:00 -0.4 °F -2.1 °F 1006.3 in SW 4.8 mph 12.9 mph 88 % 0.0 in
04:15 -0.3 °F -2.0 °F 1006.0 in SW 3.2 mph 11.3 mph 88 % 0.0 in
04:30 -0.2 °F -2.0 °F 1006.0 in SW 4.8 mph 11.3 mph 88 % 0.0 in
04:45 -0.2 °F -2.0 °F 1005.6 in SW 4.8 mph 9.7 mph 88 % 0.0 in
05:00 -0.2 °F -1.9 °F 1005.6 in SW 4.8 mph 12.9 mph 88 % 0.0 in
05:15 -0.1 °F -1.9 °F 1005.3 in SW 4.8 mph 17.7 mph 88 % 0.0 in
05:45 -0.1 °F -1.8 °F 1005.6 in SW 4.8 mph 9.7 mph 88 % 0.0 in
06:00 0.1 °F -1.9 °F 1005.3 in SSW 4.8 mph 9.7 mph 87 % 0.0 in
06:15 0.2 °F -1.7 °F 1005.0 in SSW 3.2 mph 12.9 mph 87 % 0.0 in
06:30 0.3 °F -1.7 °F 1004.6 in SSW 6.4 mph 17.7 mph 86 % 0.0 in
06:45 0.4 °F -1.7 °F 1004.6 in SSW 3.2 mph 11.3 mph 86 % 0.0 in
07:15 0.7 °F -1.6 °F 1004.3 in South 3.2 mph 16.1 mph 85 % 0.0 in
07:30 0.8 °F -1.4 °F 1004.3 in SSW 4.8 mph 16.1 mph 85 % 0.0 in
07:45 0.9 °F -1.3 °F 1003.9 in SSW 6.4 mph 16.1 mph 85 % 0.0 in
08:15 1.2 °F -1.0 °F 1003.9 in SW 6.4 mph 17.7 mph 85 % 0.0 in
08:30 1.4 °F -0.5 °F 1003.6 in SSW 3.2 mph 12.9 mph 87 % 0.0 in
08:45 1.3 °F -0.4 °F 1003.6 in SW 4.8 mph 12.9 mph 88 % 0.0 in
09:00 1.4 °F -0.2 °F 1003.6 in SW 4.8 mph 16.1 mph 89 % 0.0 in
09:15 1.4 °F -0.1 °F 1003.3 in SW 4.8 mph 22.5 mph 90 % 0.0 in
09:45 1.7 °F 0.3 °F 1002.9 in SSW 4.8 mph 14.5 mph 90 % 0.0 in
10:00 2.2 °F 0.3 °F 1002.9 in WSW 4.8 mph 17.7 mph 87 % 0.0 in
10:15 2.6 °F 0.3 °F 1002.9 in West 3.2 mph 9.7 mph 85 % 0.0 in
10:30 2.9 °F 0.5 °F 1002.6 in WSW 4.8 mph 20.9 mph 84 % 0.0 in
10:45 3.2 °F 0.6 °F 1002.6 in WSW 4.8 mph 19.3 mph 83 % 0.0 in
11:00 3.4 °F 0.7 °F 1002.6 in West 6.4 mph 19.3 mph 82 % 0.0 in
11:15 3.8 °F 0.9 °F 1002.6 in WNW 6.4 mph 20.9 mph 81 % 0.0 in
11:30 4.3 °F 1.0 °F 1002.6 in WNW 8.0 mph 17.7 mph 79 % 0.0 in
11:45 4.7 °F 1.2 °F 1002.6 in WNW 8.0 mph 22.5 mph 78 % 0.0 in
12:00 4.8 °F 1.1 °F 1002.6 in WNW 8.0 mph 25.7 mph 77 % 0.0 in
12:15 4.9 °F 1.1 °F 1002.6 in WNW 8.0 mph 24.1 mph 76 % 0.0 in
12:30 4.9 °F 0.9 °F 1002.6 in WNW 9.7 mph 24.1 mph 75 % 0.0 in
12:45 4.9 °F 0.9 °F 1002.6 in WNW 9.7 mph 24.1 mph 75 % 0.0 in
13:00 4.8 °F 0.8 °F 1002.6 in WNW 6.4 mph 20.9 mph 75 % 0.0 in
13:15 4.8 °F 0.7 °F 1002.6 in WNW 8.0 mph 29.0 mph 75 % 0.0 in
13:30 4.7 °F 0.7 °F 1002.6 in NW 11.3 mph 20.9 mph 75 % 0.0 in
13:45 4.6 °F 0.6 °F 1002.9 in NW 9.7 mph 25.7 mph 75 % 0.0 in
14:00 4.5 °F 0.5 °F 1002.9 in NW 9.7 mph 22.5 mph 75 % 0.0 in
14:15 4.3 °F 0.3 °F 1002.9 in NW 8.0 mph 19.3 mph 75 % 0.0 in
14:30 4.3 °F 0.2 °F 1002.9 in NW 6.4 mph 14.5 mph 75 % 0.0 in
14:45 4.2 °F 0.2 °F 1002.9 in NW 6.4 mph 14.5 mph 75 % 0.0 in
15:00 4.2 °F 0.4 °F 1002.9 in NW 3.2 mph 9.7 mph 76 % 0.0 in
15:15 4.2 °F 0.5 °F 1002.9 in WNW 3.2 mph 9.7 mph 77 % 0.0 in
15:30 4.1 °F 0.4 °F 1002.9 in Calm   4.8 mph 77 % 0.0 in
15:45 4.0 °F 0.5 °F 1002.9 in West 1.6 mph 6.4 mph 78 % 0.0 in
16:00 3.9 °F 0.5 °F 1002.6 in WNW 1.6 mph 6.4 mph 78 % 0.0 in
16:15 3.8 °F 0.5 °F 1002.9 in Calm   3.2 mph 79 % 0.0 in
16:30 3.6 °F 0.5 °F 1002.9 in Calm   3.2 mph 80 % 0.0 in
16:45 3.4 °F 0.3 °F 1002.9 in Calm   6.4 mph 80 % 0.0 in
17:00 3.3 °F 0.5 °F 1002.9 in WNW 1.6 mph 9.7 mph 82 % 0.0 in
17:15 3.1 °F 0.5 °F 1002.9 in WNW 1.6 mph 11.3 mph 83 % 0.0 in
17:30 3.0 °F 0.1 °F 1002.9 in WSW 1.6 mph 9.7 mph 81 % 0.0 in
17:45 2.8 °F -0.1 °F 1002.6 in WNW 1.6 mph 8.0 mph 81 % 0.0 in
18:00 2.6 °F -0.2 °F 1002.6 in WSW 1.6 mph 9.7 mph 82 % 0.0 in
18:15 2.4 °F 0.1 °F 1002.6 in SW 1.6 mph 8.0 mph 85 % 0.0 in
18:30 2.1 °F 0.2 °F 1002.6 in Calm   4.8 mph 87 % 0.0 in
18:45 1.8 °F 0.2 °F 1002.3 in Calm   3.2 mph 89 % 0.0 in
19:00 1.6 °F 0.1 °F 1002.3 in Calm   4.8 mph 90 % 0.0 in
19:15 1.4 °F 0.1 °F 1001.9 in Calm   3.2 mph 91 % 0.0 in
19:30 1.3 °F 0.2 °F 1001.9 in SW 1.6 mph 6.4 mph 92 % 0.0 in
19:45 1.3 °F 0.3 °F 1001.6 in Calm   4.8 mph 93 % 0.0 in
20:00 1.2 °F 0.4 °F 1001.6 in Calm   3.2 mph 94 % 0.0 in
20:15 1.2 °F 0.3 °F 1001.6 in Calm     94 % 0.0 in
20:30 1.1 °F 0.2 °F 1001.2 in Calm   1.6 mph 94 % 0.0 in
20:45 0.9 °F 0.1 °F 1001.2 in Calm   1.6 mph 94 % 0.0 in
21:00 0.8 °F 0.1 °F 1000.9 in Calm   3.2 mph 95 % 0.0 in
21:15 0.8 °F 0.1 °F 1000.6 in Calm   3.2 mph 95 % 0.0 in
21:30 0.7 °F 0.0 °F 1000.2 in Calm   3.2 mph 95 % 0.0 in
21:45 0.6 °F -0.1 °F 1000.2 in Calm   4.8 mph 95 % 0.0 in
22:00 0.6 °F 0.0 °F 999.9 in Calm   1.6 mph 96 % 0.0 in
22:15 0.6 °F 0.0 °F 999.5 in Calm   3.2 mph 96 % 0.0 in
22:30 0.7 °F 0.1 °F 999.2 in Calm   3.2 mph 96 % 0.0 in
22:45 0.8 °F 0.2 °F 999.2 in Calm   4.8 mph 96 % 0.0 in
23:00 0.9 °F 0.4 °F 998.9 in SSW 1.6 mph 9.7 mph 96 % 0.0 in
23:15 1.2 °F 0.6 °F 998.5 in SSW 1.6 mph 9.7 mph 96 % 0.0 in
23:30 1.3 °F 0.9 °F 998.5 in SSW 3.2 mph 11.3 mph 97 % 0.0 in
23:45 1.4 °F 0.8 °F 998.2 in SSW 1.6 mph 6.4 mph 96 % 0.0 in
Esan sääasema
Terveisin Weather Underground - 2.75 mb

Alkuperäinen skripti  Jim McMurry - jmcmurry@mwt.net Sovitettu myös templatelle  Wim van der Kuil - Leuven-Template.eu

Laitteet joita käytämme:

Sääasema
Davis VP2

Sääasemaohjelma
Cumulus

Sääaseman tietokone
Asus EeePC

Palveluntarjoaja
Suncomet

Davis VP2

Cumulus

Asus EeePC

Suncomet